Terminal Aerodrome Forecast
Issued by NWS

Home | Current Version | Previous Version | Text Only | Print | Product List | Glossary On
Versions: 1 2 3 4 5 6 7 8 9 10 11 12 13 14 15 16 17 18 19
000
FTUS46 KSGX 311800 AAA
TAFSNA
TAF AMD
KSNA 311840Z 3119/0118 VRB03KT P6SM SCT025 SCT050
     FM312000 24008KT P6SM FEW035 BKN250
     FM010200 VRB03KT P6SM SCT250
     FM010800 00000KT 6SM HZ SCT015 BKN250=

USA.gov is the U.S. government's official web portal to all federal, state and local government web resources and services.